Nearby METAR Reports

 

LIBV - Gioia Del Colle, Italy
Distance from station: SSE 15km
Actualización: 22/09/2019 03:55
Despejado
Despejado
 Viento del ESE
Viento: ESE 2 km/h
Temperatura: 11°C
Rocío: 10°C
Humedad: 94%
Barómetro: 1021 hPa
Resumen: Despejado
Visibility: greater than 10 km
2019/09/22 01:55 LIBV 220155Z 12001KT CAVOK 11/10 Q1021 RMK SKC VIS MIN 9999 WIND THR32 17004KT WIND THR14 13001KT BLU
LIBD - Bari/Palese Macc, Italy
Distance from station: NNO 26km
Actualización: 22/09/2019 03:50
Despejado
Despejado
 Viento del SSO
Viento: SSO 7 km/h
Temperatura: 13°C
Rocío: 10°C
Humedad: 82%
Barómetro: 1021 hPa
Resumen: Despejado
Visibility: greater than 10 km
2019/09/22 01:50 LIBD 220150Z 21004KT CAVOK 13/10 Q1021
 
LIBH - Marina Di Ginosa, Italy
Distance from station: S 53km
Actualización: 21/09/2019 19:55
NOT Current
Despejado
Despejado
 Viento del NNO
Viento: NNO 7 km/h
Temperatura: 20°C
Rocío: 14°C
Humedad: 69%
Barómetro: 1020 hPa
Resumen: Despejado
Visibility: greater than 10 km
2019/09/21 17:55 LIBH 211755Z 34004KT CAVOK 20/14 Q1020 RMK FEW FEW200 QUK / QUL / VIS MAR /M VIS MIN 9999
LIBG - Grottaglie(Civ/A, Italy
Distance from station: SE 61km
Actualización: 21/09/2019 19:50
NOT Current
Despejado
Despejado
 Viento del E
Viento: E 6 km/h
Temperatura: 19°C
Rocío: 14°C
Humedad: 73%
Barómetro: 1021 hPa
Resumen: Despejado
Visibility: greater than 10 km
2019/09/21 17:50 LIBG 211750Z 08003KT 050V110 CAVOK 19/14 Q1021
 
LIBR - Brindisi/Casale, Italy
Distance from station: ESE 96km
Actualización: 22/09/2019 03:50
Despejado
Despejado
 Viento del SO
Viento: SO 15 km/h
Temperatura: 15°C
Rocío: 13°C
Humedad: 88%
Barómetro: 1021 hPa
Resumen: Despejado
Visibility: greater than 10 km
2019/09/22 01:50 LIBR 220150Z 23008KT CAVOK 15/13 Q1021
LIBA - Amendola (it-Afb, Italy
Distance from station: NO 118km
Actualización: 22/09/2019 03:55
Despejado
Despejado
 Viento del SO
Viento: SO 7 km/h
Temperatura: 15°C
Rocío: 13°C
Humedad: 88%
Barómetro: 1021 hPa
Resumen: Despejado
Visibility: greater than 10 km
2019/09/22 01:55 LIBA 220155Z 23004KT CAVOK 15/13 Q1021 RMK SKC VIS MIN 9999 WIND THR11 22003KT WIND THR29 /////KT BLU
 
LIBF - Foggia/Gino Lisa, Italy
Distance from station: ONO 126km
Actualización: 21/09/2019 17:50
NOT Current
Despejado
Despejado
 Viento del NNE
Viento: NNE 11 km/h
Temperatura: 23°C
Rocío: 11°C
Humedad: 47%
Barómetro: 1022 hPa
Resumen: Despejado
Visibility: greater than 10 km
2019/09/21 15:50 LIBF 211550Z 02006KT CAVOK 23/11 Q1022
LIBN - Lecce (it-Afb), Italy
Distance from station: SE 132km
Actualización: 22/09/2019 03:55
Despejado
Despejado
 Viento del varies
Viento: varies 2 km/h
Temperatura: 12°C
Rocío: 10°C
Humedad: 88%
Barómetro: 1021 hPa
Resumen: Despejado
Visibility: greater than 10 km
2019/09/22 01:55 LIBN 220155Z VRB01KT CAVOK 12/10 Q1021 RMK SKC VIS MIN 9999 WIND THR14 VRB02KT WIND THR32 VRB02KT BLU